Time;durP1;ratioP1;P1;durP2;ratioP2;P2;SDS_P1;SDS_P2;PMS_P1;PMS_P2;Temp;Humidity;BMP_temperature;BMP_pressure;BME280_temperature;BME280_humidity;BME280_pressure;Samples;Min_cycle;Max_cycle;Signal;HPM_P1;HPM_P2
2022/11/12 00:00:52;;;;;;;5.23;4.00;;;9.40;99.90;;;;;;5040833;28;20189;-72
2022/11/12 00:03:18;;;;;;;5.37;3.93;;;9.40;99.90;;;;;;5053788;28;20206;-72
2022/11/12 00:05:44;;;;;;;4.83;3.97;;;9.40;99.90;;;;;;5052187;28;20178;-72
2022/11/12 00:08:12;;;;;;;4.40;3.77;;;9.30;99.90;;;;;;5042856;28;20178;-71
2022/11/12 00:10:40;;;;;;;5.17;3.80;;;9.30;99.90;;;;;;5049584;28;20208;-73
2022/11/12 00:13:06;;;;;;;6.03;4.13;;;9.30;99.90;;;;;;5044813;28;20180;-72
2022/11/12 00:15:33;;;;;;;6.37;4.53;;;9.30;99.90;;;;;;5051686;28;20169;-72
2022/11/12 00:17:59;;;;;;;5.10;4.10;;;9.30;99.90;;;;;;5055766;28;20268;-72
2022/11/12 00:20:25;;;;;;;6.00;3.60;;;9.20;99.90;;;;;;5061723;28;20225;-72
2022/11/12 00:22:53;;;;;;;6.40;4.13;;;9.20;99.90;;;;;;5064329;28;20204;-71
2022/11/12 00:25:21;;;;;;;4.90;3.97;;;9.10;99.90;;;;;;5051252;28;20173;-72
2022/11/12 00:27:47;;;;;;;5.77;3.83;;;9.10;99.90;;;;;;5050900;28;20198;-72
2022/11/12 00:30:17;;;;;;;5.43;4.10;;;9.10;99.90;;;;;;5051480;28;20212;-72
2022/11/12 00:32:43;;;;;;;7.10;4.53;;;9.10;99.90;;;;;;5051510;28;20242;-72
2022/11/12 00:35:09;;;;;;;7.50;4.50;;;9.10;99.90;;;;;;5053775;28;20232;-71
2022/11/12 00:37:36;;;;;;;5.97;4.23;;;9.10;99.90;;;;;;5048450;28;20200;-72
2022/11/12 00:40:05;;;;;;;7.03;4.47;;;9.10;99.90;;;;;;5052947;28;20192;-72
2022/11/12 00:42:30;;;;;;;5.53;4.70;;;9.10;99.90;;;;;;5050696;28;20296;-73
2022/11/12 00:45:01;;;;;;;5.13;4.10;;;9.10;99.90;;;;;;5052170;28;20260;-72
2022/11/12 00:47:26;;;;;;;8.10;5.00;;;9.10;99.90;;;;;;5043260;28;20181;-71
2022/11/12 00:49:57;;;;;;;5.13;4.40;;;9.10;99.90;;;;;;5052306;28;20211;-73
2022/11/12 00:52:22;;;;;;;5.33;3.93;;;9.20;99.90;;;;;;5049476;28;20200;-73
2022/11/12 00:54:48;;;;;;;6.73;4.77;;;9.20;99.90;;;;;;5053919;28;20225;-72
2022/11/12 00:57:16;;;;;;;5.73;4.53;;;9.20;99.90;;;;;;5045358;28;20181;-72
2022/11/12 00:59:42;;;;;;;6.20;4.70;;;9.20;99.90;;;;;;5047971;28;20211;-72
2022/11/12 01:02:07;;;;;;;7.03;4.90;;;9.20;99.90;;;;;;5054088;28;20201;-72
2022/11/12 01:04:35;;;;;;;4.97;4.27;;;9.20;99.90;;;;;;5053837;28;20184;-71
2022/11/12 01:07:01;;;;;;;5.07;4.37;;;9.20;99.90;;;;;;5050361;28;20198;-72
2022/11/12 01:09:26;;;;;;;5.13;4.47;;;9.20;99.90;;;;;;5050929;28;20221;-72
2022/11/12 01:11:54;;;;;;;5.83;4.53;;;9.20;99.90;;;;;;5057934;28;20189;-72
2022/11/12 01:14:20;;;;;;;4.77;4.13;;;9.20;99.90;;;;;;5054498;28;20198;-72
2022/11/12 01:16:48;;;;;;;7.03;4.97;;;9.20;99.90;;;;;;5045442;28;20217;-82
2022/11/12 01:19:14;;;;;;;5.33;4.63;;;9.10;99.90;;;;;;5058639;28;20223;-80
2022/11/12 01:21:41;;;;;;;6.10;5.00;;;9.10;99.90;;;;;;5061908;28;20173;-82
2022/11/12 01:24:08;;;;;;;6.80;5.20;;;9.20;99.90;;;;;;5054274;28;20173;-81
2022/11/12 01:26:34;;;;;;;7.73;5.10;;;9.10;99.90;;;;;;5073474;28;20197;-80
2022/11/12 01:29:00;;;;;;;7.90;5.57;;;9.00;99.90;;;;;;5065581;28;20201;-82
2022/11/12 01:31:34;;;;;;;5.87;4.70;;;9.00;99.90;;;;;;5054089;28;20179;-80
2022/11/12 01:34:08;;;;;;;6.97;5.53;;;8.90;99.90;;;;;;5045449;28;20168;-81
2022/11/12 01:36:37;;;;;;;6.77;5.03;;;9.00;99.90;;;;;;5051753;28;20180;-82
2022/11/12 01:39:06;;;;;;;6.63;5.10;;;8.90;99.90;;;;;;5064744;28;20250;-81
2022/11/12 01:41:34;;;;;;;6.47;5.20;;;9.00;99.90;;;;;;5058074;28;20177;-82
2022/11/12 01:44:23;;;;;;;5.77;4.50;;;8.90;99.90;;;;;;5069615;28;20315;-82
2022/11/12 01:47:22;;;;;;;6.30;5.17;;;8.90;99.90;;;;;;5066653;28;20272;-83
2022/11/12 01:49:53;;;;;;;5.27;4.33;;;8.90;99.90;;;;;;5053585;28;20202;-78
2022/11/12 01:52:21;;;;;;;5.70;4.90;;;8.90;99.90;;;;;;5054175;28;20247;-81
2022/11/12 01:54:51;;;;;;;6.20;4.67;;;8.90;99.90;;;;;;5053849;28;20256;-82
2022/11/12 01:57:26;;;;;;;6.43;4.90;;;8.80;99.90;;;;;;5060579;28;20178;-82
2022/11/12 01:59:59;;;;;;;5.80;4.57;;;8.80;99.90;;;;;;5041068;28;20184;-81
2022/11/12 02:02:28;;;;;;;5.53;4.60;;;8.80;99.90;;;;;;5038692;28;20424;-81
2022/11/12 02:05:01;;;;;;;7.07;5.37;;;8.80;99.90;;;;;;5033765;28;20225;-81
2022/11/12 02:07:32;;;;;;;8.47;4.97;;;8.80;99.90;;;;;;5039191;28;20177;-81
2022/11/12 02:10:02;;;;;;;6.17;4.90;;;8.70;99.90;;;;;;5058726;28;20355;-83
2022/11/12 02:15:12;;;;;;;6.97;4.87;;;8.60;99.90;;;;;;5058589;28;20167;-81
2022/11/12 02:17:40;;;;;;;6.93;5.07;;;8.70;99.90;;;;;;5057128;28;20190;-81
2022/11/12 02:20:14;;;;;;;5.87;4.40;;;8.60;99.90;;;;;;5056940;28;20173;-82
2022/11/12 02:22:44;;;;;;;6.63;5.20;;;8.60;99.90;;;;;;5056845;28;20181;-81
2022/11/12 02:25:17;;;;;;;6.13;4.97;;;8.60;99.90;;;;;;5058433;28;20177;-82
2022/11/12 02:27:44;;;;;;;6.10;4.70;;;8.60;99.90;;;;;;5073121;28;20181;-81
2022/11/12 02:30:12;;;;;;;5.67;4.50;;;8.60;99.90;;;;;;5052982;28;20197;-80
2022/11/12 02:32:40;;;;;;;5.33;4.33;;;8.50;99.90;;;;;;5056893;28;20174;-83
2022/11/12 02:35:06;;;;;;;6.73;4.37;;;8.60;99.90;;;;;;5056850;28;20169;-79
2022/11/12 02:37:32;;;;;;;4.40;3.67;;;8.50;99.90;;;;;;5054911;28;20194;-81
2022/11/12 02:40:02;;;;;;;5.17;4.07;;;8.50;99.90;;;;;;5052702;28;20239;-81
2022/11/12 02:42:27;;;;;;;5.67;4.47;;;8.50;99.90;;;;;;5047488;28;20226;-79
2022/11/12 02:44:56;;;;;;;6.33;4.10;;;8.40;99.90;;;;;;5043363;28;20240;-79
2022/11/12 02:47:21;;;;;;;4.73;3.87;;;8.50;99.90;;;;;;5054911;28;20272;-84
2022/11/12 02:49:47;;;;;;;4.53;3.97;;;8.50;99.90;;;;;;5045577;28;20296;-81
2022/11/12 02:52:12;;;;;;;5.07;4.30;;;8.50;99.90;;;;;;5052242;28;20188;-82
2022/11/12 02:54:40;;;;;;;5.57;4.40;;;8.50;99.90;;;;;;5055372;28;20181;-83
2022/11/12 02:57:06;;;;;;;5.63;4.30;;;8.40;99.90;;;;;;5056109;28;20224;-82
2022/11/12 02:59:31;;;;;;;5.13;4.07;;;8.40;99.90;;;;;;5055331;28;20242;-82
2022/11/12 03:01:57;;;;;;;6.13;4.90;;;8.40;99.90;;;;;;5054503;28;20182;-82
2022/11/12 03:04:23;;;;;;;6.27;5.20;;;8.40;99.90;;;;;;5048121;28;20192;-80
2022/11/12 03:06:51;;;;;;;6.57;5.10;;;8.40;99.90;;;;;;5056174;28;20181;-81
2022/11/12 03:09:18;;;;;;;5.77;4.33;;;8.40;99.90;;;;;;5053611;28;20200;-81
2022/11/12 03:11:44;;;;;;;5.17;4.40;;;8.30;99.90;;;;;;5061045;28;20184;-81
2022/11/12 03:14:12;;;;;;;6.13;5.07;;;8.30;99.90;;;;;;5075162;28;20169;-81
2022/11/12 03:16:38;;;;;;;6.63;4.83;;;8.40;99.90;;;;;;5050043;28;20201;-81
2022/11/12 03:19:06;;;;;;;5.53;4.50;;;8.30;99.90;;;;;;5043935;28;20182;-81
2022/11/12 03:21:32;;;;;;;5.73;4.67;;;8.30;99.90;;;;;;5056115;28;20177;-83
2022/11/12 03:23:57;;;;;;;5.63;4.50;;;8.30;99.90;;;;;;5058476;28;20256;-82
2022/11/12 03:26:23;;;;;;;5.83;4.73;;;8.20;99.90;;;;;;5054420;28;20188;-80
2022/11/12 03:28:50;;;;;;;5.80;4.50;;;8.20;99.90;;;;;;5055761;28;20307;-83
2022/11/12 03:31:16;;;;;;;5.83;4.80;;;8.10;99.90;;;;;;5041743;28;20188;-83
2022/11/12 03:33:42;;;;;;;4.37;3.97;;;8.20;99.90;;;;;;5053119;28;20181;-82
2022/11/12 03:36:07;;;;;;;4.80;3.87;;;8.20;99.90;;;;;;5055908;28;20189;-82
2022/11/12 03:38:35;;;;;;;4.97;3.60;;;8.10;99.90;;;;;;5055877;28;20185;-81
2022/11/12 03:41:01;;;;;;;4.27;3.60;;;8.20;99.90;;;;;;5056011;28;20184;-84
2022/11/12 03:43:28;;;;;;;4.30;3.87;;;8.20;99.90;;;;;;5064820;28;20205;-81
2022/11/12 03:45:54;;;;;;;5.40;4.07;;;8.10;99.90;;;;;;5069343;28;20188;-83
2022/11/12 03:48:20;;;;;;;5.17;4.20;;;8.10;99.90;;;;;;5056297;28;20178;-79
2022/11/12 03:50:46;;;;;;;4.57;3.70;;;8.10;99.90;;;;;;5052097;28;20289;-82
2022/11/12 03:53:11;;;;;;;5.20;4.20;;;8.00;99.90;;;;;;5041510;28;20173;-82
2022/11/12 03:55:40;;;;;;;4.00;3.60;;;8.10;99.90;;;;;;5055394;28;20165;-81
2022/11/12 03:58:06;;;;;;;4.40;3.80;;;8.10;99.90;;;;;;5054706;28;20243;-82
2022/11/12 04:00:31;;;;;;;4.80;4.00;;;8.00;99.90;;;;;;5063341;28;20180;-82
2022/11/12 04:02:57;;;;;;;3.93;3.33;;;8.10;99.90;;;;;;5062142;28;20196;-82
2022/11/12 04:10:58;;;;;;;4.73;3.60;;;8.00;99.90;;;;;;5053755;28;20212;-81
2022/11/12 04:13:27;;;;;;;7.27;4.33;;;8.00;99.90;;;;;;5052453;28;20181;-81
2022/11/12 04:21:50;;;;;;;5.27;4.33;;;7.90;99.90;;;;;;5061730;28;20202;-81
2022/11/12 04:27:21;;;;;;;4.87;3.67;;;7.80;99.90;;;;;;5052981;28;20191;-83
2022/11/12 04:32:34;;;;;;;4.90;3.73;;;7.80;99.90;;;;;;5035528;28;20223;-82
2022/11/12 04:35:03;;;;;;;4.37;3.93;;;7.80;99.90;;;;;;5056253;28;20203;-82
2022/11/12 04:37:45;;;;;;;4.83;4.07;;;7.80;99.90;;;;;;5069139;28;20177;-82
2022/11/12 04:46:05;;;;;;;4.77;3.70;;;7.70;99.90;;;;;;5045616;28;20197;-80
2022/11/12 04:48:31;;;;;;;5.27;3.70;;;7.70;99.90;;;;;;5050014;28;20205;-81
2022/11/12 04:50:59;;;;;;;4.23;3.70;;;7.70;99.90;;;;;;5063524;28;20223;-83
2022/11/12 04:53:31;;;;;;;4.83;3.53;;;7.70;99.90;;;;;;5053457;28;20223;-82
2022/11/12 04:56:00;;;;;;;5.30;4.30;;;7.70;99.90;;;;;;5054754;28;20197;-78
2022/11/12 04:58:26;;;;;;;4.73;3.83;;;7.70;99.90;;;;;;5049837;28;20181;-82
2022/11/12 05:00:52;;;;;;;4.83;3.67;;;7.70;99.90;;;;;;5054394;28;20277;-81
2022/11/12 05:03:23;;;;;;;4.73;4.10;;;7.70;99.90;;;;;;5050468;28;20198;-82
2022/11/12 05:06:49;;;;;;;4.60;3.60;;;7.70;99.90;;;;;;5050959;28;20224;-79
2022/11/12 05:08:49;;;;;;;5.17;3.97;;;7.60;99.90;;;;;;5052712;28;20220;-84
2022/11/12 05:11:17;;;;;;;5.07;4.00;;;7.60;99.90;;;;;;5055501;28;20168;-84
2022/11/12 05:13:45;;;;;;;4.80;4.07;;;7.70;99.90;;;;;;5061257;28;20441;-86
2022/11/12 05:16:13;;;;;;;4.37;3.37;;;7.60;99.90;;;;;;5056501;28;20395;-84
2022/11/12 05:18:39;;;;;;;4.60;3.90;;;7.50;99.90;;;;;;5066042;28;20189;-86
2022/11/12 05:22:04;;;;;;;4.70;3.93;;;7.50;99.90;;;;;;5053623;28;20188;-82
2022/11/12 05:23:50;;;;;;;5.87;4.33;;;7.50;99.90;;;;;;5043583;28;20193;-85
2022/11/12 05:26:18;;;;;;;4.87;3.97;;;7.50;99.90;;;;;;5052126;28;20185;-83
2022/11/12 05:28:46;;;;;;;4.50;3.60;;;7.50;99.90;;;;;;5054062;28;20264;-87
2022/11/12 05:31:11;;;;;;;4.10;3.70;;;7.50;99.90;;;;;;5065498;28;20205;-87
2022/11/12 05:33:37;;;;;;;5.67;4.77;;;7.50;99.90;;;;;;5047021;28;20266;-84
2022/11/12 05:36:03;;;;;;;4.83;4.10;;;7.50;99.90;;;;;;5051459;28;20253;-87
2022/11/12 05:38:28;;;;;;;4.73;3.40;;;7.50;99.90;;;;;;5051827;28;20210;-86
2022/11/12 05:40:54;;;;;;;4.77;3.83;;;7.60;99.90;;;;;;5056520;28;20184;-86
2022/11/12 05:43:20;;;;;;;5.53;4.57;;;7.50;99.90;;;;;;5064432;28;20185;-86
2022/11/12 05:45:47;;;;;;;5.87;4.67;;;7.50;99.90;;;;;;5058301;28;20177;-87
2022/11/12 05:48:13;;;;;;;4.70;3.90;;;7.50;99.90;;;;;;5058724;28;20181;-84
2022/11/12 05:50:41;;;;;;;5.20;4.00;;;7.40;99.90;;;;;;5072365;28;20236;-84
2022/11/12 05:53:07;;;;;;;5.43;4.07;;;7.40;99.90;;;;;;5069115;28;20241;-85
2022/11/12 05:55:33;;;;;;;5.30;4.10;;;7.40;99.90;;;;;;5061814;28;20173;-84
2022/11/12 05:58:06;;;;;;;4.70;3.93;;;7.40;99.90;;;;;;5056050;28;20184;-85
2022/11/12 06:00:37;;;;;;;4.43;3.83;;;7.40;99.90;;;;;;5057854;28;20192;-85
2022/11/12 06:03:04;;;;;;;4.30;3.30;;;7.30;99.90;;;;;;5057888;28;20181;-81
2022/11/12 06:05:33;;;;;;;3.70;3.27;;;7.30;99.90;;;;;;5060149;28;20203;-82
2022/11/12 06:07:59;;;;;;;4.70;4.00;;;7.30;99.90;;;;;;5065120;28;20177;-82
2022/11/12 06:10:26;;;;;;;4.30;3.60;;;7.30;99.90;;;;;;5057220;28;20239;-81
2022/11/12 06:12:54;;;;;;;4.87;3.40;;;7.30;99.90;;;;;;5057890;28;20173;-81
2022/11/12 06:15:19;;;;;;;3.60;3.07;;;7.30;99.90;;;;;;5055888;28;20188;-82
2022/11/12 06:17:47;;;;;;;5.57;3.57;;;7.30;99.90;;;;;;5057654;28;20173;-82
2022/11/12 06:20:13;;;;;;;4.50;3.37;;;7.30;99.90;;;;;;5057789;28;20181;-83
2022/11/12 06:22:39;;;;;;;4.27;3.50;;;7.30;99.90;;;;;;5057557;28;20169;-82
2022/11/12 06:25:04;;;;;;;3.87;3.10;;;7.30;99.90;;;;;;5055670;28;20169;-83
2022/11/12 06:27:30;;;;;;;5.63;4.63;;;7.30;99.90;;;;;;5064526;28;20188;-82
2022/11/12 06:29:56;;;;;;;4.53;3.50;;;7.30;99.90;;;;;;5077061;28;20197;-82
2022/11/12 06:32:25;;;;;;;4.20;3.47;;;7.30;99.90;;;;;;5077761;28;20172;-82
2022/11/12 06:34:55;;;;;;;3.77;3.03;;;7.30;99.90;;;;;;5076920;28;20172;-82
2022/11/12 06:37:20;;;;;;;4.17;3.10;;;7.30;99.90;;;;;;5065760;28;20177;-80
2022/11/12 06:39:47;;;;;;;3.20;2.83;;;7.30;99.90;;;;;;5051053;28;20267;-81
2022/11/12 06:42:13;;;;;;;3.57;2.83;;;7.30;99.90;;;;;;5074152;28;20231;-80
2022/11/12 06:44:38;;;;;;;2.90;2.60;;;7.40;99.90;;;;;;5064935;28;20198;-81
2022/11/12 06:47:09;;;;;;;3.17;2.70;;;7.40;99.90;;;;;;5037532;28;20174;-80
2022/11/12 06:49:37;;;;;;;3.00;2.37;;;7.40;99.90;;;;;;5058733;28;20193;-81
2022/11/12 06:52:03;;;;;;;3.40;2.70;;;7.40;99.90;;;;;;5056673;28;20217;-80
2022/11/12 06:54:31;;;;;;;2.90;2.33;;;7.40;99.90;;;;;;5056725;28;20298;-81
2022/11/12 06:56:59;;;;;;;3.27;2.70;;;7.40;99.90;;;;;;5057427;28;20188;-82
2022/11/12 06:59:28;;;;;;;3.50;2.60;;;7.50;99.90;;;;;;5056759;28;20303;-82
2022/11/12 07:01:56;;;;;;;3.07;2.60;;;7.50;99.90;;;;;;5056577;28;20185;-81
2022/11/12 07:04:23;;;;;;;3.33;2.60;;;7.50;99.90;;;;;;5056454;28;20189;-80
2022/11/12 07:06:51;;;;;;;4.63;3.73;;;7.40;99.90;;;;;;5064384;28;20223;-81
2022/11/12 07:09:16;;;;;;;4.70;3.40;;;7.60;99.90;;;;;;5056979;28;20194;-81
2022/11/12 07:11:49;;;;;;;4.23;3.10;;;7.50;99.90;;;;;;5056221;28;20227;-79
2022/11/12 07:14:15;;;;;;;3.70;2.70;;;7.50;99.90;;;;;;5058070;28;20193;-79
2022/11/12 07:16:43;;;;;;;3.40;2.80;;;7.50;99.90;;;;;;5055881;28;20219;-78
2022/11/12 07:19:08;;;;;;;3.07;2.63;;;7.60;99.90;;;;;;5056123;28;20461;-79
2022/11/12 07:21:34;;;;;;;3.20;2.50;;;7.60;99.90;;;;;;5053801;28;20204;-79
2022/11/12 07:24:00;;;;;;;3.83;3.07;;;7.60;99.90;;;;;;5052489;28;20182;-78
2022/11/12 07:26:28;;;;;;;3.63;3.03;;;7.50;99.90;;;;;;5047392;28;20201;-78
2022/11/12 07:28:56;;;;;;;3.70;3.30;;;7.60;99.90;;;;;;5059371;28;20705;-79
2022/11/12 07:31:22;;;;;;;3.03;2.67;;;7.60;99.90;;;;;;5055779;28;20451;-78
2022/11/12 07:33:53;;;;;;;3.87;3.17;;;7.60;99.90;;;;;;5055717;28;20269;-79
2022/11/12 07:36:20;;;;;;;3.17;2.87;;;7.60;99.90;;;;;;5057595;28;20173;-79
2022/11/12 07:38:50;;;;;;;4.20;3.27;;;7.60;99.90;;;;;;5055347;28;20197;-80
2022/11/12 07:41:19;;;;;;;3.57;3.27;;;7.60;99.90;;;;;;5054601;28;20188;-79
2022/11/12 07:43:46;;;;;;;3.83;3.27;;;7.70;99.90;;;;;;5055360;28;20741;-78
2022/11/12 07:46:17;;;;;;;5.93;4.37;;;7.70;99.90;;;;;;5056978;28;20181;-79
2022/11/12 07:48:49;;;;;;;5.77;4.30;;;7.70;99.90;;;;;;5055486;28;20189;-77
2022/11/12 07:51:20;;;;;;;4.80;4.13;;;7.80;99.90;;;;;;5057332;28;20194;-80
2022/11/12 07:53:48;;;;;;;5.33;4.17;;;7.80;99.90;;;;;;5048202;28;20188;-78
2022/11/12 07:56:19;;;;;;;4.50;3.80;;;7.80;99.90;;;;;;5059779;28;20178;-78
2022/11/12 07:58:45;;;;;;;4.60;3.70;;;7.90;99.90;;;;;;5052134;28;20215;-78
2022/11/12 08:01:38;;;;;;;4.93;4.00;;;7.90;99.90;;;;;;5067117;28;20176;-79
2022/11/12 08:04:08;;;;;;;5.87;4.40;;;8.00;99.90;;;;;;5054896;28;20212;-77
2022/11/12 08:06:37;;;;;;;5.23;4.13;;;8.00;99.90;;;;;;5054530;28;20215;-79
2022/11/12 08:09:07;;;;;;;5.70;4.10;;;8.00;99.90;;;;;;5056116;28;20193;-78
2022/11/12 08:11:35;;;;;;;5.33;4.43;;;8.20;99.90;;;;;;5060847;28;20204;-78
2022/11/12 08:14:04;;;;;;;5.23;3.90;;;8.10;99.90;;;;;;5048692;28;20293;-81
2022/11/12 08:16:30;;;;;;;6.17;4.00;;;8.20;99.90;;;;;;5062801;28;20197;-79
2022/11/12 08:18:55;;;;;;;4.80;4.17;;;8.20;99.90;;;;;;5054514;28;20177;-79
2022/11/12 08:21:23;;;;;;;4.57;3.90;;;8.30;99.90;;;;;;5059286;28;20177;-80
2022/11/12 08:23:54;;;;;;;5.87;4.20;;;8.30;99.90;;;;;;5056842;28;20184;-77
2022/11/12 08:26:28;;;;;;;5.53;4.77;;;8.40;99.90;;;;;;5069120;28;20173;-78
2022/11/12 08:28:53;;;;;;;4.00;3.57;;;8.50;99.90;;;;;;5045274;28;20225;-80
2022/11/12 08:31:21;;;;;;;5.40;3.90;;;8.50;99.90;;;;;;5043400;28;20197;-79
2022/11/12 08:33:50;;;;;;;5.40;4.23;;;8.50;99.90;;;;;;5065759;28;20205;-80
2022/11/12 08:36:18;;;;;;;4.10;3.60;;;8.60;99.90;;;;;;5044687;28;20189;-80
2022/11/12 08:38:44;;;;;;;4.97;3.80;;;8.70;99.90;;;;;;5051296;28;20181;-78
2022/11/12 08:41:12;;;;;;;5.90;4.50;;;8.80;99.90;;;;;;5047901;28;20178;-80
2022/11/12 08:43:39;;;;;;;5.50;4.57;;;8.90;99.90;;;;;;5053494;28;20169;-80
2022/11/12 08:46:08;;;;;;;5.00;4.50;;;8.90;99.90;;;;;;5053251;28;20268;-79
2022/11/12 08:48:38;;;;;;;5.13;4.57;;;9.00;99.90;;;;;;5059279;28;20208;-77
2022/11/12 08:51:05;;;;;;;5.07;4.30;;;9.10;99.90;;;;;;5054405;28;20195;-77
2022/11/12 08:53:31;;;;;;;5.30;4.73;;;9.10;99.90;;;;;;5055363;28;20182;-77
2022/11/12 08:55:57;;;;;;;5.10;4.40;;;9.20;99.90;;;;;;5063347;28;20172;-77
2022/11/12 08:58:24;;;;;;;5.57;4.83;;;9.40;99.90;;;;;;5058489;28;20173;-78
2022/11/12 09:00:50;;;;;;;5.80;4.80;;;9.80;99.90;;;;;;5050745;28;20256;-78
2022/11/12 09:03:20;;;;;;;5.83;5.07;;;10.20;99.90;;;;;;5054880;28;20269;-78
2022/11/12 09:05:48;;;;;;;6.07;5.00;;;10.60;99.90;;;;;;5048990;28;20184;-77
2022/11/12 09:08:17;;;;;;;5.37;4.70;;;11.00;99.90;;;;;;5050543;28;20284;-78
2022/11/12 09:10:42;;;;;;;5.53;4.57;;;11.40;99.90;;;;;;5047706;28;20177;-78
2022/11/12 09:13:09;;;;;;;4.75;4.03;;;11.80;99.90;;;;;;5041217;28;20287;-76
2022/11/12 09:15:37;;;;;;;5.18;4.25;;;12.20;99.90;;;;;;5053439;28;20185;-76
2022/11/12 09:18:06;;;;;;;7.03;4.53;;;12.50;99.90;;;;;;5049940;28;20199;-78
2022/11/12 09:20:31;;;;;;;5.03;4.30;;;12.70;99.90;;;;;;5049936;28;20193;-78
2022/11/12 09:23:11;;;;;;;4.43;3.78;;;13.00;99.90;;;;;;5041058;28;20185;-78
2022/11/12 09:25:42;;;;;;;4.03;3.53;;;13.10;99.90;;;;;;5054409;28;20222;-79
2022/11/12 09:28:16;;;;;;;5.95;3.90;;;13.20;99.90;;;;;;5054389;28;20201;-76
2022/11/12 09:30:48;;;;;;;4.43;3.55;;;13.30;99.90;;;;;;5055428;28;20205;-77
2022/11/12 09:33:17;;;;;;;4.90;4.40;;;13.40;99.90;;;;;;5039006;28;20178;-77
2022/11/12 09:35:46;;;;;;;4.15;3.75;;;13.50;99.90;;;;;;5054019;28;20258;-76
2022/11/12 09:38:14;;;;;;;5.07;4.15;;;13.50;99.90;;;;;;5054622;28;20262;-73
2022/11/12 09:40:51;;;;;;;4.28;3.70;;;13.40;99.90;;;;;;5054970;28;20208;-72
2022/11/12 09:43:28;;;;;;;4.13;3.72;;;13.40;99.90;;;;;;5047103;28;20193;-73
2022/11/12 09:45:58;;;;;;;4.30;3.90;;;13.40;99.90;;;;;;5042941;28;20194;-74
2022/11/12 09:48:37;;;;;;;3.88;3.42;;;13.40;99.90;;;;;;5053906;28;20188;-72
2022/11/12 09:51:09;;;;;;;3.45;3.15;;;13.40;99.90;;;;;;5056442;28;20173;-73
2022/11/12 09:53:53;;;;;;;3.38;3.08;;;13.40;99.90;;;;;;5056042;28;20227;-73
2022/11/12 09:56:23;;;;;;;3.83;3.20;;;13.40;99.90;;;;;;5060801;28;20169;-73
2022/11/12 09:58:50;;;;;;;3.83;3.45;;;13.40;99.90;;;;;;5057096;28;20174;-74
2022/11/12 10:01:29;;;;;;;3.60;3.28;;;13.40;99.90;;;;;;5049114;28;20208;-73
2022/11/12 10:04:22;;;;;;;3.58;3.00;;;13.50;99.90;;;;;;5053983;28;20181;-73
2022/11/12 10:07:10;;;;;;;3.95;3.47;;;13.50;99.90;;;;;;5045892;28;20193;-74
2022/11/12 10:09:58;;;;;;;3.80;3.45;;;13.60;99.90;;;;;;5052125;28;20231;-74
2022/11/12 10:13:13;;;;;;;4.55;3.83;;;13.70;99.90;;;;;;5053993;28;20199;-74
2022/11/12 10:19:21;;;;;;;3.63;2.80;;;13.90;99.90;;;;;;5035738;28;20217;-75
2022/11/12 10:22:04;;;;;;;4.50;3.42;;;13.90;99.90;;;;;;5050499;28;20322;-74
2022/11/12 10:24:36;;;;;;;3.55;3.17;;;13.90;99.90;;;;;;5037885;28;20225;-74
2022/11/12 10:27:16;;;;;;;3.72;3.30;;;14.00;99.90;;;;;;5041086;28;20199;-74
2022/11/12 10:29:52;;;;;;;4.85;3.55;;;14.00;99.90;;;;;;5053426;28;20197;-74
2022/11/12 10:32:19;;;;;;;5.28;3.45;;;14.00;99.90;;;;;;5037877;28;20241;-74
2022/11/12 10:34:44;;;;;;;4.00;3.45;;;14.00;99.90;;;;;;5056510;28;20181;-75
2022/11/12 10:37:23;;;;;;;3.67;3.17;;;14.00;99.90;;;;;;5053840;28;20234;-76
2022/11/12 10:39:54;;;;;;;3.83;3.30;;;14.10;99.90;;;;;;5055790;28;20193;-75
2022/11/12 10:42:24;;;;;;;3.72;3.15;;;14.10;99.90;;;;;;5051066;28;20174;-75
2022/11/12 10:44:50;;;;;;;3.78;2.90;;;14.10;99.90;;;;;;5053579;28;20191;-74
2022/11/12 10:47:37;;;;;;;3.13;2.83;;;14.10;99.90;;;;;;5052951;28;20210;-74
2022/11/12 10:50:38;;;;;;;4.38;2.85;;;14.10;99.90;;;;;;5063030;28;20299;-73
2022/11/12 10:53:06;;;;;;;2.50;2.28;;;14.00;99.90;;;;;;5055516;28;20193;-74
2022/11/12 10:55:36;;;;;;;3.45;2.65;;;14.00;99.90;;;;;;5051859;28;20169;-75
2022/11/12 10:58:08;;;;;;;2.97;2.63;;;14.00;99.90;;;;;;5056050;28;20177;-73
2022/11/12 11:00:36;;;;;;;3.75;2.70;;;14.00;99.90;;;;;;5051479;28;20194;-75
2022/11/12 11:03:43;;;;;;;3.72;2.58;;;14.10;99.90;;;;;;5050823;28;20228;-73
2022/11/12 11:06:15;;;;;;;3.28;2.45;;;14.10;99.90;;;;;;5056094;28;20192;-75
2022/11/12 11:08:48;;;;;;;2.83;2.35;;;14.20;99.90;;;;;;5052801;28;20189;-75
2022/11/12 11:11:29;;;;;;;2.45;2.20;;;14.30;99.90;;;;;;5053994;28;20256;-74
2022/11/12 11:14:07;;;;;;;3.13;2.58;;;14.40;99.90;;;;;;5052525;28;20208;-75
2022/11/12 11:16:52;;;;;;;3.15;2.60;;;14.50;99.90;;;;;;5056282;28;20187;-75
2022/11/12 11:19:21;;;;;;;3.10;2.70;;;14.60;99.90;;;;;;5055659;28;20186;-73
2022/11/12 11:21:49;;;;;;;2.70;2.40;;;14.70;99.90;;;;;;5061297;28;20193;-75
2022/11/12 11:24:27;;;;;;;3.53;2.70;;;14.70;99.90;;;;;;5059127;28;20177;-74
2022/11/12 11:27:20;;;;;;;2.70;2.50;;;14.80;99.90;;;;;;5046320;28;20202;-73
2022/11/12 11:30:11;;;;;;;2.60;2.35;;;14.90;99.90;;;;;;5046190;28;20224;-75
2022/11/12 11:33:04;;;;;;;3.00;2.67;;;15.00;99.90;;;;;;5054140;28;20174;-74
2022/11/12 11:35:41;;;;;;;3.50;2.90;;;15.10;99.90;;;;;;5055475;28;20196;-74
2022/11/12 11:38:44;;;;;;;3.40;2.80;;;15.30;99.90;;;;;;5070357;28;21403;-75
2022/11/12 11:41:35;;;;;;;3.58;2.42;;;15.40;99.90;;;;;;5044837;28;20215;-76
2022/11/12 11:44:10;;;;;;;5.50;3.10;;;15.50;99.90;;;;;;5044295;28;20177;-78
2022/11/12 11:46:54;;;;;;;4.28;3.17;;;15.60;99.90;;;;;;5051243;28;20454;-76
2022/11/12 11:49:19;;;;;;;3.75;3.08;;;15.70;99.90;;;;;;5051330;28;20194;-76
2022/11/12 11:52:04;;;;;;;4.65;2.90;;;15.80;99.90;;;;;;5055074;28;20180;-74
2022/11/12 11:54:48;;;;;;;3.92;2.72;;;15.90;99.90;;;;;;5043755;28;20178;-72
2022/11/12 11:57:55;;;;;;;4.05;3.10;;;16.00;99.90;;;;;;5073306;28;20162;-73
2022/11/12 12:00:24;;;;;;;3.28;2.70;;;16.20;99.90;;;;;;4996438;28;20186;-74
2022/11/12 12:03:04;;;;;;;4.25;3.10;;;16.30;99.90;;;;;;5044126;28;20230;-74
2022/11/12 12:05:41;;;;;;;4.03;3.00;;;16.40;99.90;;;;;;5049546;28;20176;-74
2022/11/12 12:08:09;;;;;;;3.95;3.38;;;16.60;99.90;;;;;;5055448;28;20168;-74
2022/11/12 12:10:41;;;;;;;3.08;2.53;;;16.70;99.90;;;;;;5055185;28;20205;-74
2022/11/12 12:13:47;;;;;;;4.30;3.30;;;16.90;99.90;;;;;;5055414;28;20162;-73
2022/11/12 12:16:21;;;;;;;4.82;3.60;;;17.00;99.90;;;;;;5054613;28;20165;-74
2022/11/12 12:19:07;;;;;;;4.40;3.08;;;17.20;99.90;;;;;;5048758;28;20206;-74
2022/11/12 12:21:37;;;;;;;4.13;3.55;;;17.30;99.90;;;;;;5052371;28;20212;-75
2022/11/12 12:24:19;;;;;;;6.82;3.40;;;17.30;99.90;;;;;;5055021;28;20192;-75
2022/11/12 12:26:51;;;;;;;3.70;3.30;;;17.30;99.90;;;;;;5051652;28;20244;-74
2022/11/12 12:29:27;;;;;;;4.00;3.40;;;17.30;99.90;;;;;;5049796;28;20201;-72
2022/11/12 12:32:04;;;;;;;4.07;3.30;;;17.30;99.90;;;;;;5049328;28;20176;-73
2022/11/12 12:34:40;;;;;;;4.40;3.90;;;17.20;99.90;;;;;;5046668;28;20192;-73
2022/11/12 12:37:19;;;;;;;5.28;3.63;;;17.20;99.90;;;;;;5059330;28;20238;-73
2022/11/12 12:40:12;;;;;;;4.07;3.30;;;17.10;99.90;;;;;;5052073;28;20193;-73
2022/11/12 12:42:48;;;;;;;3.78;3.13;;;17.00;99.90;;;;;;5049358;28;20319;-72
2022/11/12 12:45:40;;;;;;;4.45;3.50;;;17.00;99.90;;;;;;5051706;28;20180;-74
2022/11/12 12:48:19;;;;;;;4.30;3.20;;;16.90;99.90;;;;;;5070534;28;20189;-74
2022/11/12 12:50:48;;;;;;;4.57;3.15;;;16.90;99.90;;;;;;5051880;28;20331;-73
2022/11/12 12:53:14;;;;;;;3.70;2.85;;;17.00;99.90;;;;;;5053830;28;20174;-73
2022/11/12 12:55:49;;;;;;;3.67;3.03;;;17.00;99.90;;;;;;5055529;28;20181;-73
2022/11/12 12:58:38;;;;;;;4.18;2.90;;;17.00;99.90;;;;;;5052702;28;20180;-74
2022/11/12 13:01:13;;;;;;;5.07;3.30;;;17.10;99.90;;;;;;5046519;28;20192;-73
2022/11/12 13:03:41;;;;;;;4.15;3.15;;;17.20;99.90;;;;;;5051100;28;20184;-73
2022/11/12 13:06:15;;;;;;;3.05;2.75;;;17.40;99.90;;;;;;5043767;28;20185;-73
2022/11/12 13:08:41;;;;;;;4.18;3.10;;;17.50;99.90;;;;;;5056702;28;20189;-72
2022/11/12 13:11:09;;;;;;;3.40;2.90;;;17.60;99.90;;;;;;5051152;28;20258;-72
2022/11/12 13:13:37;;;;;;;3.75;3.10;;;17.70;99.90;;;;;;5053894;28;20173;-73
2022/11/12 13:16:05;;;;;;;6.25;2.90;;;17.70;99.90;;;;;;5053696;28;20180;-72
2022/11/12 13:18:37;;;;;;;3.95;2.95;;;17.80;99.90;;;;;;5053497;28;20192;-72
2022/11/12 13:21:21;;;;;;;3.67;3.03;;;17.80;99.90;;;;;;5052934;28;20197;-74
2022/11/12 13:24:09;;;;;;;2.95;2.58;;;17.80;99.90;;;;;;5067707;28;20250;-71
2022/11/12 13:26:44;;;;;;;4.07;3.10;;;17.90;99.90;;;;;;5053966;28;20177;-72
2022/11/12 13:29:30;;;;;;;3.55;3.20;;;17.90;99.90;;;;;;5042677;28;20210;-73
2022/11/12 13:32:36;;;;;;;4.65;3.30;;;18.00;99.90;;;;;;5042672;28;20260;-73
2022/11/12 13:35:14;;;;;;;3.85;3.30;;;18.10;99.90;;;;;;5059176;28;20247;-72
2022/11/12 13:37:43;;;;;;;3.65;2.97;;;18.20;99.90;;;;;;5043597;28;20184;-73
2022/11/12 13:40:16;;;;;;;3.75;3.30;;;18.20;99.90;;;;;;5068209;28;20177;-69
2022/11/12 13:42:47;;;;;;;6.28;3.50;;;18.30;99.90;;;;;;5083091;28;20180;-68